createdAt,value
2024-05-09T00:02:01.006Z,101557.09
2024-05-09T00:04:23.698Z,101552.03
2024-05-09T00:06:46.388Z,101555.63
2024-05-09T00:09:09.009Z,101553.94
2024-05-09T00:11:31.708Z,101561.06
2024-05-09T00:13:54.391Z,101557.72
2024-05-09T00:16:17.066Z,101547.34
2024-05-09T00:18:39.818Z,101553.50
2024-05-09T00:21:07.052Z,101557.94
2024-05-09T00:23:29.873Z,101556.25
2024-05-09T00:25:52.582Z,101560.84
2024-05-09T00:28:15.321Z,101560.94
2024-05-09T00:30:38.242Z,101560.13
2024-05-09T00:33:01.158Z,101563.78
2024-05-09T00:35:24.181Z,101556.31
2024-05-09T00:37:46.905Z,101561.63
2024-05-09T00:40:18.269Z,101552.41
2024-05-09T00:42:48.065Z,101559.66
2024-05-09T00:45:10.751Z,101561.63
2024-05-09T00:47:34.806Z,101554.28
2024-05-09T00:49:57.609Z,101559.59
2024-05-09T00:52:20.329Z,101560.75
2024-05-09T00:54:42.977Z,101566.41
2024-05-09T00:57:05.974Z,101557.59
2024-05-09T00:59:30.660Z,101556.00
2024-05-09T01:01:53.674Z,101553.38
2024-05-09T01:04:16.408Z,101555.91
2024-05-09T01:06:39.190Z,101555.16
2024-05-09T01:09:01.809Z,101553.38
2024-05-09T01:11:24.621Z,101552.34
2024-05-09T01:13:47.486Z,101555.72
2024-05-09T01:16:10.180Z,101541.88
2024-05-09T01:18:33.030Z,101544.81
2024-05-09T01:20:55.795Z,101550.97
2024-05-09T01:23:18.575Z,101538.81
2024-05-09T01:25:41.397Z,101543.94
2024-05-09T01:28:04.188Z,101540.41
2024-05-09T01:30:33.824Z,101545.66
2024-05-09T01:32:58.982Z,101541.78
2024-05-09T01:35:23.584Z,101543.06
2024-05-09T01:37:46.404Z,101540.09
2024-05-09T01:40:14.904Z,101539.00
2024-05-09T01:42:40.986Z,101543.06
2024-05-09T01:45:03.636Z,101539.50
2024-05-09T01:47:26.458Z,101539.41
2024-05-09T01:49:49.278Z,101533.22
2024-05-09T01:52:12.010Z,101534.69
2024-05-09T01:54:34.654Z,101537.97
2024-05-09T01:56:57.431Z,101533.34
2024-05-09T01:59:20.116Z,101533.03
2024-05-09T02:01:56.220Z,101532.09
2024-05-09T02:04:20.604Z,101536.41
2024-05-09T02:06:43.589Z,101531.88
2024-05-09T02:09:06.214Z,101537.97
2024-05-09T02:11:28.932Z,101536.16
2024-05-09T02:13:51.749Z,101532.63
2024-05-09T02:16:15.234Z,101536.00
2024-05-09T02:18:38.038Z,101543.00
2024-05-09T02:21:01.008Z,101536.09
2024-05-09T02:23:23.777Z,101536.91
2024-05-09T02:25:46.815Z,101534.28
2024-05-09T02:28:09.532Z,101533.78
2024-05-09T02:30:39.360Z,101535.25
2024-05-09T02:33:04.583Z,101530.19
2024-05-09T02:35:27.996Z,101536.56
2024-05-09T02:37:50.696Z,101539.59
2024-05-09T02:40:15.017Z,101537.91
2024-05-09T02:42:44.154Z,101536.44
2024-05-09T02:45:07.390Z,101536.66
2024-05-09T02:47:30.242Z,101542.38
2024-05-09T02:49:53.139Z,101536.63
2024-05-09T02:52:19.605Z,101540.16
2024-05-09T02:54:42.248Z,101539.31
2024-05-09T02:57:04.982Z,101530.59
2024-05-09T02:59:27.908Z,101531.56
2024-05-09T03:01:50.732Z,101536.69
2024-05-09T03:04:13.576Z,101543.69
2024-05-09T03:06:41.875Z,101541.06
2024-05-09T03:09:04.881Z,101543.63
2024-05-09T03:11:27.802Z,101542.31
2024-05-09T03:13:54.078Z,101536.88
2024-05-09T03:16:16.770Z,101538.53
2024-05-09T03:18:39.920Z,101541.53
2024-05-09T03:21:02.710Z,101541.00
2024-05-09T03:23:25.911Z,101543.81
2024-05-09T03:25:48.623Z,101541.59
2024-05-09T03:28:12.295Z,101547.00
2024-05-09T03:30:40.377Z,101544.13
2024-05-09T03:33:05.961Z,101547.34
2024-05-09T03:35:29.041Z,101539.72
2024-05-09T03:37:51.842Z,101538.78
2024-05-09T03:40:20.839Z,101541.50
2024-05-09T03:42:46.625Z,101540.34
2024-05-09T03:45:09.366Z,101538.59
2024-05-09T03:47:35.354Z,101540.47
2024-05-09T03:49:58.268Z,101544.22
2024-05-09T03:52:21.118Z,101546.00
2024-05-09T03:54:47.521Z,101539.81
2024-05-09T03:57:10.141Z,101540.66
2024-05-09T03:59:32.907Z,101541.59
2024-05-09T04:01:56.034Z,101532.06
2024-05-09T04:04:18.807Z,101537.28
2024-05-09T04:06:43.137Z,101542.53
2024-05-09T04:09:05.824Z,101539.06
2024-05-09T04:11:28.637Z,101556.34
2024-05-09T04:13:51.522Z,101545.59
2024-05-09T04:16:14.236Z,101548.84
2024-05-09T04:18:36.998Z,101549.50
2024-05-09T04:20:59.793Z,101556.84
2024-05-09T04:23:22.600Z,101553.53
2024-05-09T04:25:46.678Z,101553.88
2024-05-09T04:28:11.818Z,101555.28
2024-05-09T04:30:38.918Z,101562.91
2024-05-09T04:33:04.032Z,101559.47
2024-05-09T04:35:26.940Z,101561.56
2024-05-09T04:37:50.357Z,101562.16
2024-05-09T04:40:24.045Z,101561.22
2024-05-09T04:42:53.748Z,101559.59
2024-05-09T04:45:16.364Z,101563.25
2024-05-09T04:47:39.187Z,101568.50
2024-05-09T04:50:01.926Z,101568.41
2024-05-09T04:52:24.774Z,101567.16
2024-05-09T04:54:47.436Z,101563.16
2024-05-09T04:57:10.088Z,101564.72
2024-05-09T04:59:36.916Z,101566.66
2024-05-09T05:01:59.785Z,101570.59
2024-05-09T05:04:25.491Z,101563.19
2024-05-09T05:06:48.156Z,101571.56
2024-05-09T05:09:10.794Z,101574.84
2024-05-09T05:11:33.740Z,101575.72
2024-05-09T05:13:56.463Z,101570.69
2024-05-09T05:16:19.207Z,101579.97
2024-05-09T05:18:41.950Z,101578.59
2024-05-09T05:21:04.796Z,101589.28
2024-05-09T05:23:27.605Z,101579.34
2024-05-09T05:25:55.169Z,101580.34
2024-05-09T05:28:18.242Z,101578.41
2024-05-09T05:30:41.964Z,101583.22
2024-05-09T05:33:10.356Z,101589.84
2024-05-09T05:35:33.288Z,101593.72
2024-05-09T05:37:56.138Z,101598.00
2024-05-09T05:40:28.042Z,101592.00
2024-05-09T05:42:58.015Z,101598.81
2024-05-09T05:45:20.632Z,101593.22
2024-05-09T05:47:43.449Z,101598.75
2024-05-09T05:50:17.596Z,101601.59
2024-05-09T05:52:46.859Z,101603.56
2024-05-09T05:55:09.501Z,101604.41
2024-05-09T05:57:32.197Z,101607.03
2024-05-09T05:59:54.883Z,101609.44
2024-05-09T06:02:17.788Z,101600.81
2024-05-09T06:04:40.834Z,101601.94
2024-05-09T06:07:03.556Z,101604.16
2024-05-09T06:09:26.358Z,101605.44
2024-05-09T06:11:49.087Z,101612.75
2024-05-09T06:14:11.721Z,101609.78
2024-05-09T06:16:34.418Z,101617.28
2024-05-09T06:18:57.223Z,101620.31
2024-05-09T06:21:20.080Z,101614.28
2024-05-09T06:23:53.462Z,101610.16
2024-05-09T06:26:16.764Z,101602.84
2024-05-09T06:28:39.419Z,101607.78
2024-05-09T06:31:03.709Z,101607.06
2024-05-09T06:33:26.661Z,101597.97
2024-05-09T06:35:49.538Z,101592.50
2024-05-09T06:38:12.546Z,101592.97
2024-05-09T06:40:38.541Z,101604.81
2024-05-09T06:43:02.874Z,101607.44
2024-05-09T06:45:25.503Z,101607.56
2024-05-09T06:47:48.396Z,101601.16
2024-05-09T06:50:19.687Z,101601.91
2024-05-09T06:52:48.252Z,101606.00
2024-05-09T06:55:10.927Z,101603.63
2024-05-09T06:57:33.605Z,101606.75
2024-05-09T06:59:59.826Z,101610.63
2024-05-09T07:02:22.803Z,101608.69
2024-05-09T07:04:45.629Z,101610.13
2024-05-09T07:07:09.361Z,101610.91
2024-05-09T07:09:32.023Z,101613.63
2024-05-09T07:11:54.759Z,101605.38
2024-05-09T07:14:17.520Z,101611.31
2024-05-09T07:16:40.316Z,101613.69
2024-05-09T07:19:06.076Z,101599.25
2024-05-09T07:21:28.920Z,101602.84
2024-05-09T07:23:51.558Z,101598.16
2024-05-09T07:26:14.336Z,101598.66
2024-05-09T07:28:37.001Z,101597.00
2024-05-09T07:30:59.650Z,101585.66
2024-05-09T07:33:24.137Z,101595.31
2024-05-09T07:35:47.654Z,101597.22
2024-05-09T07:38:10.338Z,101597.66
2024-05-09T07:40:36.404Z,101590.63
2024-05-09T07:42:59.704Z,101588.97
2024-05-09T07:45:41.654Z,101591.44
2024-05-09T07:52:23.247Z,101579.84
2024-05-09T07:53:37.297Z,101594.19
2024-05-09T07:55:56.745Z,101596.44
2024-05-09T07:58:19.640Z,101594.78
2024-05-09T08:00:42.335Z,101594.91
2024-05-09T08:03:05.299Z,101602.38
2024-05-09T08:05:28.159Z,101597.50
2024-05-09T08:07:51.258Z,101588.94
2024-05-09T08:10:21.954Z,101591.88
2024-05-09T08:12:47.423Z,101594.50
2024-05-09T08:15:10.072Z,101584.47
2024-05-09T08:17:32.952Z,101577.06
2024-05-09T08:19:56.233Z,101582.69
2024-05-09T08:22:18.943Z,101576.81
2024-05-09T08:24:46.781Z,101582.44
2024-05-09T08:27:10.056Z,101573.38
2024-05-09T08:29:32.959Z,101575.69
2024-05-09T08:31:56.951Z,101575.72
2024-05-09T08:34:19.818Z,101569.16
2024-05-09T08:36:42.634Z,101565.13
2024-05-09T08:39:05.268Z,101560.28
2024-05-09T08:41:29.060Z,101557.47
2024-05-09T08:43:51.701Z,101567.22
2024-05-09T08:46:18.874Z,101561.84
2024-05-09T08:48:44.385Z,101554.03
2024-05-09T08:51:07.753Z,101554.91
2024-05-09T08:53:30.430Z,101552.78
2024-05-09T08:55:54.190Z,101566.56
2024-05-09T08:58:20.753Z,101558.06
2024-05-09T09:00:46.002Z,101551.56
2024-05-09T09:03:10.558Z,101549.38
2024-05-09T09:05:39.533Z,101545.34
2024-05-09T09:08:08.015Z,101537.09
2024-05-09T09:10:32.414Z,101539.91
2024-05-09T09:12:58.354Z,101532.97
2024-05-09T09:15:21.176Z,101533.06
2024-05-09T09:17:57.060Z,101534.34
2024-05-09T09:20:26.385Z,101527.88
2024-05-09T09:22:58.727Z,101524.47
2024-05-09T09:25:24.832Z,101521.66
2024-05-09T09:27:48.530Z,101513.72
2024-05-09T09:30:22.488Z,101517.66
2024-05-09T09:32:53.674Z,101515.41
2024-05-09T09:35:17.788Z,101515.03
2024-05-09T09:37:40.432Z,101525.59
2024-05-09T09:40:05.737Z,101530.41
2024-05-09T09:42:34.429Z,101530.31
2024-05-09T09:45:04.619Z,101526.28
2024-05-09T09:47:29.018Z,101532.34
2024-05-09T09:49:52.811Z,101530.19
2024-05-09T09:52:15.822Z,101526.00
2024-05-09T09:54:39.136Z,101509.19
2024-05-09T09:57:04.005Z,101503.22
2024-05-09T09:59:26.697Z,101500.59
2024-05-09T10:01:49.726Z,101507.41
2024-05-09T10:04:18.585Z,101500.03
2024-05-09T10:07:13.868Z,101505.81
2024-05-09T10:09:36.880Z,101501.78
2024-05-09T10:12:11.294Z,101502.72
2024-05-09T10:14:51.140Z,101491.81
2024-05-09T10:17:13.832Z,101488.31
2024-05-09T10:19:36.587Z,101486.63
2024-05-09T10:22:04.463Z,101488.44
2024-05-09T10:24:27.444Z,101473.28
2024-05-09T10:26:58.940Z,101473.72
2024-05-09T10:29:26.451Z,101475.38
2024-05-09T10:31:49.307Z,101482.44
2024-05-09T10:34:24.018Z,101472.56
2024-05-09T10:36:47.238Z,101472.97
2024-05-09T10:39:10.124Z,101462.78
2024-05-09T10:41:41.004Z,101474.47
2024-05-09T10:44:03.602Z,101459.81
2024-05-09T10:46:26.796Z,101462.19
2024-05-09T10:48:50.171Z,101458.78
2024-05-09T10:51:14.307Z,101458.81
2024-05-09T10:53:47.494Z,101463.53
2024-05-09T10:56:10.859Z,101447.34
2024-05-09T10:58:33.500Z,101451.41
2024-05-09T11:00:58.068Z,101448.75
2024-05-09T11:03:22.195Z,101447.44
2024-05-09T11:05:45.668Z,101438.22
2024-05-09T11:08:09.306Z,101442.75
2024-05-09T11:10:34.316Z,101441.44
2024-05-09T11:12:57.436Z,101448.84
2024-05-09T11:15:20.162Z,101421.63
2024-05-09T11:17:43.304Z,101432.50
2024-05-09T11:20:13.264Z,101434.66
2024-05-09T11:22:39.538Z,101443.00
2024-05-09T11:25:05.391Z,101429.88
2024-05-09T11:27:28.207Z,101423.38
2024-05-09T11:29:51.092Z,101427.19
2024-05-09T11:32:16.826Z,101425.34
2024-05-09T11:34:41.926Z,101429.84
2024-05-09T11:37:05.430Z,101423.72
2024-05-09T11:39:28.413Z,101418.75
2024-05-09T11:41:51.070Z,101410.75
2024-05-09T11:44:13.768Z,101414.75
2024-05-09T11:46:36.421Z,101417.41
2024-05-09T11:48:59.175Z,101412.75
2024-05-09T11:51:21.919Z,101406.78
2024-05-09T11:53:45.071Z,101409.09
2024-05-09T11:56:08.000Z,101403.13
2024-05-09T11:58:34.436Z,101402.28
2024-05-09T12:00:57.911Z,101404.13
2024-05-09T12:03:20.866Z,101405.28
2024-05-09T12:05:43.759Z,101398.47
2024-05-09T12:08:07.131Z,101400.78
2024-05-09T12:10:33.488Z,101398.44
2024-05-09T12:12:58.361Z,101393.13
2024-05-09T12:15:21.042Z,101384.84
2024-05-09T12:17:44.857Z,101380.03
2024-05-09T12:20:17.406Z,101379.84
2024-05-09T12:22:48.295Z,101375.00
2024-05-09T12:25:11.076Z,101367.69
2024-05-09T12:27:33.836Z,101372.72
2024-05-09T12:29:56.456Z,101367.22
2024-05-09T12:32:19.188Z,101385.84
2024-05-09T12:34:41.994Z,101376.38
2024-05-09T12:37:04.956Z,101368.22
2024-05-09T12:39:27.675Z,101370.88
2024-05-09T12:41:50.367Z,101361.09
2024-05-09T12:44:13.001Z,101356.13
2024-05-09T12:46:35.723Z,101354.78
2024-05-09T12:48:58.688Z,101353.94
2024-05-09T12:51:21.472Z,101347.97
2024-05-09T12:53:44.106Z,101341.47
2024-05-09T12:58:29.979Z,101343.78
2024-05-09T13:00:53.377Z,101343.31
2024-05-09T13:03:16.564Z,101347.31
2024-05-09T13:05:41.344Z,101352.59
2024-05-09T13:08:05.331Z,101338.31
2024-05-09T13:10:32.207Z,101334.31
2024-05-09T13:12:56.057Z,101326.03
2024-05-09T13:15:18.732Z,101329.00
2024-05-09T13:17:41.498Z,101326.72
2024-05-09T13:20:05.638Z,101327.84
2024-05-09T13:22:29.793Z,101327.72
2024-05-09T13:24:52.463Z,101322.53
2024-05-09T13:27:15.143Z,101316.59
2024-05-09T13:29:39.668Z,101305.81
2024-05-09T13:32:03.679Z,101314.94
2024-05-09T13:34:26.393Z,101306.78
2024-05-09T13:36:51.678Z,101305.63
2024-05-09T13:39:14.319Z,101302.00
2024-05-09T13:41:36.980Z,101307.28
2024-05-09T13:44:00.955Z,101298.16
2024-05-09T13:46:23.756Z,101294.34
2024-05-09T13:48:46.629Z,101286.03
2024-05-09T13:51:09.380Z,101281.53
2024-05-09T13:53:32.016Z,101291.50
2024-05-09T13:55:54.772Z,101283.19
2024-05-09T13:58:17.678Z,101285.84
2024-05-09T14:00:46.432Z,101276.41
2024-05-09T14:03:11.510Z,101279.38
2024-05-09T14:05:34.429Z,101285.84
2024-05-09T14:07:57.259Z,101281.84
2024-05-09T14:10:26.208Z,101273.41
2024-05-09T14:12:53.573Z,101273.88
2024-05-09T14:15:16.216Z,101275.25
2024-05-09T14:17:39.094Z,101267.94
2024-05-09T14:20:01.840Z,101259.78
2024-05-09T14:22:24.500Z,101252.16
2024-05-09T14:24:47.237Z,101251.97
2024-05-09T14:27:10.053Z,101248.66
2024-05-09T14:29:35.286Z,101245.00
2024-05-09T14:32:00.838Z,101238.56
2024-05-09T14:34:23.747Z,101231.75
2024-05-09T14:36:46.686Z,101242.69
2024-05-09T14:39:09.514Z,101233.06
2024-05-09T14:41:32.222Z,101247.66
2024-05-09T14:43:54.823Z,101235.56
2024-05-09T14:46:17.641Z,101238.34
2024-05-09T14:48:40.924Z,101236.03
2024-05-09T14:51:03.747Z,101224.91
2024-05-09T14:53:28.178Z,101222.09
2024-05-09T14:55:50.942Z,101216.13
2024-05-09T14:58:13.872Z,101213.81
2024-05-09T15:00:46.078Z,101214.13
2024-05-09T15:03:12.568Z,101207.50
2024-05-09T15:05:35.413Z,101203.34
2024-05-09T15:07:59.451Z,101205.19
2024-05-09T15:10:31.091Z,101200.38
2024-05-09T15:12:57.599Z,101198.69
2024-05-09T15:15:20.251Z,101205.19
2024-05-09T15:17:43.210Z,101203.50
2024-05-09T15:20:09.453Z,101193.38
2024-05-09T15:22:32.480Z,101192.72
2024-05-09T15:24:55.251Z,101188.25
2024-05-09T15:27:18.923Z,101182.94
2024-05-09T15:29:41.792Z,101179.59
2024-05-09T15:32:04.751Z,101189.41
2024-05-09T15:34:27.497Z,101183.25
2024-05-09T15:36:51.182Z,101180.59
2024-05-09T15:39:14.015Z,101177.28
2024-05-09T15:41:36.614Z,101190.22
2024-05-09T15:43:59.284Z,101183.25
2024-05-09T15:46:22.083Z,101176.59
2024-05-09T15:48:45.141Z,101175.59
2024-05-09T15:51:07.950Z,101181.25
2024-05-09T15:53:30.618Z,101172.28
2024-05-09T15:55:53.307Z,101175.09
2024-05-09T15:58:16.332Z,101170.63
2024-05-09T16:00:42.310Z,101167.78
2024-05-09T16:03:06.932Z,101169.63
2024-05-09T16:05:29.900Z,101170.63
2024-05-09T16:07:52.783Z,101172.94
2024-05-09T16:10:22.693Z,101164.66
2024-05-09T16:12:48.466Z,101167.00
2024-05-09T16:15:11.119Z,101166.81
2024-05-09T16:17:33.922Z,101157.34
2024-05-09T16:19:56.813Z,101168.97
2024-05-09T16:22:19.462Z,101164.84
2024-05-09T16:24:42.247Z,101169.66
2024-05-09T16:27:05.348Z,101164.84
2024-05-09T16:29:28.116Z,101162.66
2024-05-09T16:31:50.733Z,101161.31
2024-05-09T16:34:13.508Z,101161.31
2024-05-09T16:36:36.341Z,101148.41
2024-05-09T16:38:59.753Z,101154.69
2024-05-09T16:41:22.387Z,101161.31
2024-05-09T16:43:45.016Z,101155.69
2024-05-09T16:46:08.931Z,101158.03
2024-05-09T16:48:32.445Z,101152.72
2024-05-09T16:50:55.198Z,101157.03
2024-05-09T16:53:17.850Z,101154.88
2024-05-09T16:55:40.559Z,101157.53
2024-05-09T16:58:04.288Z,101163.00
2024-05-09T17:00:38.158Z,101157.22
2024-05-09T17:03:05.254Z,101149.75
2024-05-09T17:05:29.618Z,101143.97
2024-05-09T17:07:52.410Z,101143.81
2024-05-09T17:10:22.674Z,101156.06
2024-05-09T17:12:52.203Z,101157.09
2024-05-09T17:15:14.898Z,101152.09
2024-05-09T17:17:37.688Z,101147.44
2024-05-09T17:20:00.409Z,101145.44
2024-05-09T17:22:23.183Z,101151.78
2024-05-09T17:24:46.026Z,101146.94
2024-05-09T17:27:09.585Z,101149.78
2024-05-09T17:29:32.385Z,101144.47
2024-05-09T17:31:55.262Z,101146.75
2024-05-09T17:34:18.079Z,101149.28
2024-05-09T17:36:40.855Z,101145.78
2024-05-09T17:39:03.544Z,101140.47
2024-05-09T17:41:26.699Z,101141.47
2024-05-09T17:43:49.366Z,101144.47
2024-05-09T17:46:12.008Z,101142.13
2024-05-09T17:48:35.797Z,101143.47
2024-05-09T17:50:58.639Z,101142.66
2024-05-09T17:53:21.630Z,101137.84
2024-05-09T17:55:44.275Z,101147.78
2024-05-09T17:58:07.373Z,101146.47
2024-05-09T18:00:37.651Z,101143.16
2024-05-09T18:03:03.413Z,101148.78
2024-05-09T18:05:28.818Z,101136.84
2024-05-09T18:07:51.628Z,101143.50
2024-05-09T18:10:21.939Z,101141.19
2024-05-09T18:12:48.348Z,101139.81
2024-05-09T18:15:11.161Z,101137.81
2024-05-09T18:17:34.613Z,101140.16
2024-05-09T18:19:57.533Z,101138.13
2024-05-09T18:22:20.326Z,101149.25
2024-05-09T18:24:43.135Z,101144.75
2024-05-09T18:27:06.385Z,101136.13
2024-05-09T18:29:29.319Z,101142.09
2024-05-09T18:31:51.952Z,101140.41
2024-05-09T18:34:14.750Z,101144.53
2024-05-09T18:36:37.524Z,101140.84
2024-05-09T18:39:00.557Z,101146.63
2024-05-09T18:41:23.337Z,101147.28
2024-05-09T18:43:50.196Z,101144.94
2024-05-09T18:46:13.893Z,101148.88
2024-05-09T18:48:36.773Z,101152.00
2024-05-09T18:50:59.597Z,101148.34
2024-05-09T18:53:22.200Z,101158.41
2024-05-09T18:55:44.892Z,101154.25
2024-05-09T18:58:07.995Z,101154.91
2024-05-09T19:00:35.671Z,101155.75
2024-05-09T19:03:01.544Z,101168.03
2024-05-09T19:05:24.665Z,101162.06
2024-05-09T19:07:48.164Z,101162.19
2024-05-09T19:10:21.984Z,101170.47
2024-05-09T19:12:48.333Z,101172.28
2024-05-09T19:15:11.086Z,101176.91
2024-05-09T19:17:34.012Z,101179.19
2024-05-09T19:19:56.726Z,101184.81
2024-05-09T19:22:19.480Z,101182.47
2024-05-09T19:24:42.209Z,101186.88
2024-05-09T19:27:05.505Z,101186.53
2024-05-09T19:29:28.247Z,101194.13
2024-05-09T19:31:50.955Z,101194.56
2024-05-09T19:34:13.803Z,101200.03
2024-05-09T19:36:36.660Z,101197.50
2024-05-09T19:38:59.777Z,101202.81
2024-05-09T19:41:22.803Z,101194.19
2024-05-09T19:43:45.417Z,101199.50
2024-05-09T19:46:08.121Z,101192.53
2024-05-09T19:48:30.880Z,101194.53
2024-05-09T19:50:53.856Z,101197.63
2024-05-09T19:53:16.570Z,101199.09
2024-05-09T19:55:39.546Z,101190.75
2024-05-09T19:58:07.019Z,101197.19
2024-05-09T20:00:35.700Z,101198.31
2024-05-09T20:03:00.324Z,101201.94
2024-05-09T20:05:23.548Z,101200.56
2024-05-09T20:07:46.259Z,101193.94
2024-05-09T20:10:16.485Z,101194.50
2024-05-09T20:12:45.583Z,101202.78
2024-05-09T20:15:08.924Z,101200.41
2024-05-09T20:17:31.572Z,101199.44
2024-05-09T20:19:55.291Z,101207.84
2024-05-09T20:22:18.140Z,101212.44
2024-05-09T20:24:40.934Z,101204.97
2024-05-09T20:27:03.620Z,101206.41
2024-05-09T20:29:26.275Z,101207.53
2024-05-09T20:31:48.952Z,101205.00
2024-05-09T20:34:11.705Z,101202.91
2024-05-09T20:36:34.537Z,101206.53
2024-05-09T20:38:57.178Z,101205.34
2024-05-09T20:41:19.849Z,101203.97
2024-05-09T20:43:42.456Z,101203.56
2024-05-09T20:46:05.485Z,101201.53
2024-05-09T20:48:28.343Z,101201.28
2024-05-09T20:50:51.271Z,101201.06
2024-05-09T20:53:15.173Z,101202.19
2024-05-09T20:55:38.675Z,101203.31
2024-05-09T20:58:01.423Z,101204.72
2024-05-09T21:00:33.712Z,101204.22
2024-05-09T21:03:01.239Z,101209.91
2024-05-09T21:05:24.268Z,101209.50
2024-05-09T21:07:46.956Z,101209.81
2024-05-09T21:10:15.632Z,101202.31
2024-05-09T21:12:42.423Z,101204.25
2024-05-09T21:15:05.379Z,101201.38
2024-05-09T21:17:28.109Z,101203.59
2024-05-09T21:19:50.784Z,101204.88
2024-05-09T21:22:13.498Z,101210.22
2024-05-09T21:24:36.335Z,101208.53
2024-05-09T21:26:59.036Z,101207.59
2024-05-09T21:29:21.664Z,101210.00
2024-05-09T21:31:44.383Z,101208.59
2024-05-09T21:34:07.054Z,101210.84
2024-05-09T21:36:35.961Z,101212.38
2024-05-09T21:38:58.581Z,101206.00
2024-05-09T21:41:22.236Z,101207.25
2024-05-09T21:43:44.931Z,101206.53
2024-05-09T21:46:07.814Z,101203.06
2024-05-09T21:48:30.555Z,101201.41
2024-05-09T21:50:53.326Z,101199.88
2024-05-09T21:53:15.944Z,101196.13
2024-05-09T21:55:38.582Z,101198.22
2024-05-09T21:58:01.315Z,101190.72
2024-05-09T22:00:28.924Z,101189.34
2024-05-09T22:02:58.105Z,101193.06
2024-05-09T22:05:20.847Z,101189.75
2024-05-09T22:07:43.712Z,101199.75
2024-05-09T22:10:12.890Z,101188.66
2024-05-09T22:12:42.293Z,101183.66
2024-05-09T22:15:06.230Z,101190.31
2024-05-09T22:17:28.973Z,101190.84
2024-05-09T22:19:51.655Z,101197.38
2024-05-09T22:22:14.582Z,101195.84
2024-05-09T22:24:37.348Z,101197.78
2024-05-09T22:26:59.977Z,101184.75
2024-05-09T22:29:22.675Z,101191.13
2024-05-09T22:31:45.357Z,101198.47
2024-05-09T22:34:08.165Z,101191.13
2024-05-09T22:36:30.906Z,101189.72
2024-05-09T22:38:53.594Z,101190.81
2024-05-09T22:41:16.246Z,101187.75
2024-05-09T22:43:38.927Z,101191.63
2024-05-09T22:46:03.613Z,101200.78
2024-05-09T22:48:26.689Z,101189.94
2024-05-09T22:50:49.510Z,101194.75
2024-05-09T22:53:12.181Z,101189.06
2024-05-09T22:55:34.829Z,101188.38
2024-05-09T22:57:57.583Z,101191.94
2024-05-09T23:00:29.160Z,101191.22
2024-05-09T23:02:54.744Z,101198.53
2024-05-09T23:05:17.574Z,101192.88
2024-05-09T23:07:40.337Z,101192.88
2024-05-09T23:10:04.348Z,101192.97
2024-05-09T23:12:28.103Z,101187.84
2024-05-09T23:14:50.719Z,101191.56
2024-05-09T23:17:13.804Z,101185.75
2024-05-09T23:19:36.697Z,101191.16
2024-05-09T23:21:59.684Z,101187.13
2024-05-09T23:24:22.383Z,101190.56
2024-05-09T23:26:45.114Z,101191.09
2024-05-09T23:29:07.888Z,101187.91
2024-05-09T23:31:30.706Z,101189.69
2024-05-09T23:33:54.892Z,101185.53
2024-05-09T23:36:17.873Z,101195.22
2024-05-09T23:38:41.793Z,101190.22
2024-05-09T23:41:04.522Z,101186.88
2024-05-09T23:43:27.468Z,101185.91
2024-05-09T23:45:50.302Z,101187.97
2024-05-09T23:48:13.243Z,101195.31
2024-05-09T23:50:38.356Z,101183.38
2024-05-09T23:53:02.546Z,101183.25
2024-05-09T23:55:25.241Z,101188.88
2024-05-09T23:57:47.963Z,101182.22
